Time;durP1;ratioP1;P1;durP2;ratioP2;P2;SDS_P1;SDS_P2;PMS_P1;PMS_P2;Temp;Humidity;BMP_temperature;BMP_pressure;BME280_temperature;BME280_humidity;BME280_pressure;Samples;Min_cycle;Max_cycle;Signal;HPM_P1;HPM_P2
2022/12/27 00:02:20;;;;;;;11.00;3.80;;;;;;;;;;5101559;27;20083;-81
2022/12/27 00:04:47;;;;;;;13.45;3.80;;;;;;;;;;5108907;27;20063;-81
2022/12/27 00:07:13;;;;;;;13.68;3.75;;;;;;;;;;5105776;28;20049;-81
2022/12/27 00:09:40;;;;;;;18.52;5.45;;;;;;;;;;5108313;27;20110;-82
2022/12/27 00:12:06;;;;;;;9.63;3.63;;;;;;;;;;5102119;28;20064;-81
2022/12/27 00:14:33;;;;;;;11.73;3.70;;;;;;;;;;5097326;28;20052;-81
2022/12/27 00:16:59;;;;;;;9.27;3.80;;;;;;;;;;5102394;28;20527;-82
2022/12/27 00:19:26;;;;;;;19.88;3.92;;;;;;;;;;5108382;27;20071;-81
2022/12/27 00:21:52;;;;;;;13.50;4.10;;;;;;;;;;5105831;27;20327;-81
2022/12/27 00:24:18;;;;;;;12.93;3.65;;;;;;;;;;5109112;27;20048;-81
2022/12/27 00:26:45;;;;;;;17.45;3.88;;;;;;;;;;5107696;28;20056;-81
2022/12/27 00:29:11;;;;;;;12.75;3.67;;;;;;;;;;5105670;27;20545;-81
2022/12/27 00:31:38;;;;;;;11.00;3.40;;;;;;;;;;5094996;28;20045;-82
2022/12/27 00:34:06;;;;;;;13.25;3.90;;;;;;;;;;5102166;28;20147;-82
2022/12/27 00:36:33;;;;;;;11.60;3.78;;;;;;;;;;5106994;27;20053;-80
2022/12/27 00:38:59;;;;;;;12.52;3.38;;;;;;;;;;5109712;27;20059;-79
2022/12/27 00:41:26;;;;;;;14.27;3.42;;;;;;;;;;5107766;27;20109;-81
2022/12/27 00:43:53;;;;;;;14.02;3.55;;;;;;;;;;5109510;27;20048;-81
2022/12/27 00:46:19;;;;;;;11.88;3.40;;;;;;;;;;5110772;27;20071;-81
2022/12/27 00:48:46;;;;;;;11.52;3.70;;;;;;;;;;5113359;27;20067;-81
2022/12/27 00:51:14;;;;;;;12.65;3.00;;;;;;;;;;5109483;27;21003;-81
2022/12/27 00:53:41;;;;;;;16.38;3.40;;;;;;;;;;5104388;27;20048;-82
2022/12/27 00:56:13;;;;;;;13.18;3.70;;;;;;;;;;5110646;27;20048;-82
2022/12/27 00:58:39;;;;;;;13.75;3.80;;;;;;;;;;5111792;27;20047;-82
2022/12/27 01:01:06;;;;;;;11.68;3.97;;;;;;;;;;5103826;27;20044;-81
2022/12/27 01:03:32;;;;;;;11.13;3.60;;;;;;;;;;5113366;27;20067;-81
2022/12/27 01:06:03;;;;;;;15.00;3.63;;;;;;;;;;5110558;27;20040;-82
2022/12/27 01:08:29;;;;;;;13.20;3.78;;;;;;;;;;5104469;27;20063;-80
2022/12/27 01:10:56;;;;;;;12.48;3.53;;;;;;;;;;5110577;27;20055;-80
2022/12/27 01:13:22;;;;;;;12.35;4.05;;;;;;;;;;5109347;27;20056;-82
2022/12/27 01:15:48;;;;;;;11.38;4.32;;;;;;;;;;5106873;28;20056;-81
2022/12/27 01:18:15;;;;;;;14.98;4.40;;;;;;;;;;5108792;27;20055;-82
2022/12/27 01:20:41;;;;;;;9.20;3.85;;;;;;;;;;5105629;27;20897;-81
2022/12/27 01:23:08;;;;;;;21.23;4.53;;;;;;;;;;5111610;28;20076;-81
2022/12/27 01:25:34;;;;;;;13.18;4.13;;;;;;;;;;5103413;27;20048;-81
2022/12/27 01:28:01;;;;;;;10.15;3.50;;;;;;;;;;5102000;27;20110;-83
2022/12/27 01:30:27;;;;;;;12.45;4.03;;;;;;;;;;5110773;27;20366;-83
2022/12/27 01:32:53;;;;;;;10.93;3.95;;;;;;;;;;5110860;27;20063;-81
2022/12/27 01:35:20;;;;;;;12.50;4.28;;;;;;;;;;5110452;27;20064;-81
2022/12/27 01:37:46;;;;;;;13.13;4.57;;;;;;;;;;5105550;28;20138;-81
2022/12/27 01:40:13;;;;;;;13.00;3.72;;;;;;;;;;5101332;27;20595;-80
2022/12/27 01:42:51;;;;;;;10.15;4.13;;;;;;;;;;5109010;27;20511;-80
2022/12/27 01:45:22;;;;;;;12.07;4.38;;;;;;;;;;5110694;28;20185;-83
2022/12/27 01:47:51;;;;;;;10.65;4.45;;;;;;;;;;5104500;28;20063;-81
2022/12/27 01:50:21;;;;;;;10.80;3.30;;;;;;;;;;5109483;27;20052;-84
2022/12/27 01:53:07;;;;;;;15.50;4.00;;;;;;;;;;5109670;28;20060;-82
2022/12/27 01:55:33;;;;;;;11.57;3.05;;;;;;;;;;5110808;27;20286;-83
2022/12/27 01:58:20;;;;;;;10.57;3.08;;;;;;;;;;5106075;27;20117;-80
2022/12/27 02:00:47;;;;;;;9.20;2.75;;;;;;;;;;5100240;28;21600;-83
2022/12/27 02:03:16;;;;;;;10.30;2.38;;;;;;;;;;5110569;28;20062;-80
2022/12/27 02:05:43;;;;;;;9.98;2.60;;;;;;;;;;5102060;27;20163;-83
2022/12/27 02:08:17;;;;;;;13.48;3.42;;;;;;;;;;5108114;27;20056;-82
2022/12/27 02:10:44;;;;;;;11.50;4.00;;;;;;;;;;5107864;27;20144;-82
2022/12/27 02:13:11;;;;;;;9.25;4.55;;;;;;;;;;5101230;28;20056;-82
2022/12/27 02:15:37;;;;;;;9.25;3.88;;;;;;;;;;5109750;27;20060;-81
2022/12/27 02:18:03;;;;;;;13.10;4.05;;;;;;;;;;5106426;27;20148;-80
2022/12/27 02:20:37;;;;;;;12.90;4.32;;;;;;;;;;5106471;28;20503;-82
2022/12/27 02:26:14;;;;;;;11.00;4.68;;;;;;;;;;5103520;28;20059;-80
2022/12/27 02:28:58;;;;;;;11.88;4.10;;;;;;;;;;5110755;28;20147;-79
2022/12/27 02:31:32;;;;;;;8.55;3.85;;;;;;;;;;5106563;27;20165;-79
2022/12/27 02:33:59;;;;;;;12.88;4.20;;;;;;;;;;5106969;27;20115;-79
2022/12/27 02:36:28;;;;;;;16.73;4.60;;;;;;;;;;5102468;27;20523;-79
2022/12/27 02:38:56;;;;;;;14.38;4.25;;;;;;;;;;5110086;28;20469;-81
2022/12/27 02:55:42;;;;;;;11.85;5.00;;;;;;;;;;5103404;28;20499;-81
2022/12/27 02:58:30;;;;;;;16.25;4.68;;;;;;;;;;5105809;28;20060;-80
2022/12/27 03:03:45;;;;;;;11.88;4.00;;;;;;;;;;5099089;28;20064;-80
2022/12/27 03:06:39;;;;;;;12.88;3.35;;;;;;;;;;5106525;27;20060;-79
2022/12/27 03:15:53;;;;;;;19.73;3.85;;;;;;;;;;5107688;28;20048;-80
2022/12/27 03:17:46;;;;;;;10.05;2.83;;;;;;;;;;5106636;28;20048;-80
2022/12/27 03:25:47;;;;;;;12.73;3.40;;;;;;;;;;5110011;28;20055;-80
2022/12/27 03:34:03;;;;;;;12.18;3.53;;;;;;;;;;5109109;28;20056;-83
2022/12/27 03:39:33;;;;;;;15.95;3.80;;;;;;;;;;5100312;28;20110;-81
2022/12/27 03:44:47;;;;;;;9.15;3.25;;;;;;;;;;5099213;28;20061;-81
2022/12/27 03:47:39;;;;;;;12.05;3.28;;;;;;;;;;5104306;28;20247;-81
2022/12/27 03:50:20;;;;;;;12.63;3.42;;;;;;;;;;5078650;27;20055;-81
2022/12/27 03:52:49;;;;;;;11.07;3.60;;;;;;;;;;5116914;27;20074;-80
2022/12/27 03:55:20;;;;;;;12.98;3.58;;;;;;;;;;5108626;28;20048;-82
2022/12/27 03:57:46;;;;;;;14.73;3.53;;;;;;;;;;5105636;27;20515;-81
2022/12/27 04:00:16;;;;;;;12.82;3.22;;;;;;;;;;5109399;27;20094;-80
2022/12/27 04:02:43;;;;;;;13.27;3.28;;;;;;;;;;5101588;27;20524;-81
2022/12/27 04:05:10;;;;;;;15.73;3.33;;;;;;;;;;5102064;27;20101;-81
2022/12/27 04:07:36;;;;;;;18.00;3.53;;;;;;;;;;5103234;28;20064;-80
2022/12/27 04:34:47;;;;;;;13.50;2.83;;;;;;;;;;5101121;28;20056;-82
2022/12/27 04:37:15;;;;;;;15.70;3.58;;;;;;;;;;5104565;28;20056;-83
2022/12/27 04:54:55;;;;;;;11.23;2.90;;;;;;;;;;5111764;27;20104;-82
2022/12/27 04:56:14;;;;;;;12.85;2.80;;;;;;;;;;5110909;27;20114;-81
2022/12/27 05:02:01;;;;;;;8.68;3.08;;;;;;;;;;5110622;28;20052;-81
2022/12/27 05:04:12;;;;;;;15.02;2.90;;;;;;;;;;5101167;28;20048;-82
2022/12/27 05:06:39;;;;;;;13.77;3.20;;;;;;;;;;5107247;27;20059;-80
2022/12/27 05:14:35;;;;;;;16.27;2.83;;;;;;;;;;5111236;28;21260;-80
2022/12/27 05:17:02;;;;;;;11.90;3.20;;;;;;;;;;5109082;27;20509;-81
2022/12/27 05:19:28;;;;;;;11.35;2.70;;;;;;;;;;5111529;27;20052;-80
2022/12/27 05:27:25;;;;;;;14.68;3.03;;;;;;;;;;5100998;27;20407;-78
2022/12/27 05:29:52;;;;;;;21.63;3.55;;;;;;;;;;5110717;27;20853;-82
2022/12/27 05:32:18;;;;;;;13.88;3.67;;;;;;;;;;5111231;27;20045;-81
2022/12/27 05:34:45;;;;;;;18.73;3.60;;;;;;;;;;5102475;27;20049;-82
2022/12/27 05:37:11;;;;;;;15.93;3.78;;;;;;;;;;5107139;27;20056;-80
2022/12/27 05:39:37;;;;;;;15.18;3.75;;;;;;;;;;5103349;27;20066;-80
2022/12/27 05:42:04;;;;;;;14.65;4.18;;;;;;;;;;5103102;27;20051;-80
2022/12/27 05:44:30;;;;;;;12.65;3.80;;;;;;;;;;5111876;27;20048;-80
2022/12/27 05:46:57;;;;;;;20.08;8.43;;;;;;;;;;5109176;27;20104;-82
2022/12/27 05:49:23;;;;;;;20.92;5.75;;;;;;;;;;5110811;27;20056;-81
2022/12/27 05:51:49;;;;;;;15.00;5.13;;;;;;;;;;5111985;28;20053;-80
2022/12/27 05:54:16;;;;;;;21.02;6.78;;;;;;;;;;5109767;27;20058;-81
2022/12/27 05:56:42;;;;;;;15.48;4.78;;;;;;;;;;5102589;27;20051;-81
2022/12/27 05:59:08;;;;;;;27.00;7.55;;;;;;;;;;5110216;27;20048;-81
2022/12/27 06:01:35;;;;;;;16.67;4.90;;;;;;;;;;5104736;27;20133;-81
2022/12/27 06:04:01;;;;;;;12.77;3.92;;;;;;;;;;5105804;27;20056;-81
2022/12/27 06:06:28;;;;;;;10.05;3.83;;;;;;;;;;5100338;27;20083;-83
2022/12/27 06:08:54;;;;;;;14.07;3.60;;;;;;;;;;5110256;27;20144;-83
2022/12/27 06:11:20;;;;;;;18.52;4.88;;;;;;;;;;5107608;27;20052;-81
2022/12/27 06:13:48;;;;;;;16.42;4.13;;;;;;;;;;5099662;28;20972;-82
2022/12/27 06:16:14;;;;;;;16.25;5.30;;;;;;;;;;5108922;27;20127;-81
2022/12/27 06:18:41;;;;;;;21.00;5.43;;;;;;;;;;5108080;28;20505;-84
2022/12/27 06:21:12;;;;;;;16.17;4.68;;;;;;;;;;5110071;27;20617;-81
2022/12/27 06:23:39;;;;;;;15.98;4.90;;;;;;;;;;5099105;27;20514;-81
2022/12/27 06:26:06;;;;;;;21.52;5.03;;;;;;;;;;5108241;27;20099;-82
2022/12/27 06:28:33;;;;;;;11.73;4.28;;;;;;;;;;5109918;28;20089;-82
2022/12/27 06:31:00;;;;;;;19.08;4.40;;;;;;;;;;5106749;27;20052;-83
2022/12/27 06:33:26;;;;;;;17.15;4.82;;;;;;;;;;5105781;28;20054;-82
2022/12/27 06:35:53;;;;;;;14.25;3.42;;;;;;;;;;5106576;27;20052;-81
2022/12/27 06:38:19;;;;;;;26.02;4.63;;;;;;;;;;5107908;27;20536;-81
2022/12/27 06:40:46;;;;;;;20.40;4.55;;;;;;;;;;5100367;27;20581;-82
2022/12/27 06:43:12;;;;;;;13.93;5.35;;;;;;;;;;5106004;28;20052;-82
2022/12/27 06:45:38;;;;;;;16.92;5.03;;;;;;;;;;5108085;27;20063;-81
2022/12/27 06:48:05;;;;;;;17.55;4.93;;;;;;;;;;5108770;27;20545;-82
2022/12/27 06:50:31;;;;;;;23.30;5.18;;;;;;;;;;5110093;28;20507;-82
2022/12/27 06:52:57;;;;;;;18.95;4.13;;;;;;;;;;5109051;27;20058;-80
2022/12/27 06:55:24;;;;;;;13.85;4.28;;;;;;;;;;5109206;27;20036;-79
2022/12/27 06:57:50;;;;;;;15.25;4.40;;;;;;;;;;5110593;27;20700;-81
2022/12/27 07:00:17;;;;;;;21.25;4.78;;;;;;;;;;5109921;28;20395;-81
2022/12/27 07:02:43;;;;;;;12.57;4.20;;;;;;;;;;5111168;28;20052;-81
2022/12/27 07:05:10;;;;;;;10.88;4.47;;;;;;;;;;5100371;27;20105;-80
2022/12/27 07:07:36;;;;;;;18.42;4.45;;;;;;;;;;5111122;28;20044;-81
2022/12/27 07:10:02;;;;;;;12.75;4.07;;;;;;;;;;5110822;27;20083;-80
2022/12/27 07:12:29;;;;;;;15.88;4.20;;;;;;;;;;5111798;27;20055;-80
2022/12/27 07:15:02;;;;;;;15.52;3.75;;;;;;;;;;5112027;28;20556;-80
2022/12/27 07:17:28;;;;;;;15.82;4.80;;;;;;;;;;5111101;27;20058;-81
2022/12/27 07:19:55;;;;;;;12.88;3.60;;;;;;;;;;5110438;28;20465;-81
2022/12/27 07:22:21;;;;;;;16.23;3.80;;;;;;;;;;5104852;28;20052;-81
2022/12/27 07:24:47;;;;;;;12.40;4.25;;;;;;;;;;5111599;27;20893;-80
2022/12/27 07:27:14;;;;;;;17.33;4.07;;;;;;;;;;5111043;27;20080;-81
2022/12/27 07:29:40;;;;;;;14.25;3.95;;;;;;;;;;5110482;27;20483;-80
2022/12/27 07:32:11;;;;;;;11.40;3.97;;;;;;;;;;5111505;28;20060;-81
2022/12/27 07:34:37;;;;;;;16.00;3.88;;;;;;;;;;5108790;28;20518;-81
2022/12/27 07:37:04;;;;;;;13.55;4.10;;;;;;;;;;5097541;27;20496;-80
2022/12/27 07:39:30;;;;;;;16.35;5.15;;;;;;;;;;5109185;27;20071;-79
2022/12/27 07:41:56;;;;;;;19.45;4.55;;;;;;;;;;5109009;28;20536;-80
2022/12/27 07:44:29;;;;;;;13.43;3.97;;;;;;;;;;5107540;28;20110;-80
2022/12/27 07:46:56;;;;;;;13.25;3.80;;;;;;;;;;5109911;27;20062;-80
2022/12/27 07:49:22;;;;;;;11.90;4.25;;;;;;;;;;5109569;27;20127;-81
2022/12/27 07:51:49;;;;;;;15.93;4.53;;;;;;;;;;5110160;28;20054;-80
2022/12/27 07:54:15;;;;;;;16.63;4.20;;;;;;;;;;5110499;28;20048;-81
2022/12/27 07:56:41;;;;;;;14.60;4.05;;;;;;;;;;5098112;28;20586;-82
2022/12/27 07:59:10;;;;;;;16.00;4.90;;;;;;;;;;5107724;28;20499;-83
2022/12/27 08:04:21;;;;;;;18.75;4.70;;;;;;;;;;5113669;27;20055;-81
2022/12/27 08:06:48;;;;;;;17.05;5.45;;;;;;;;;;5113958;27;20056;-80
2022/12/27 08:09:16;;;;;;;15.02;5.65;;;;;;;;;;5113457;27;20059;-81
2022/12/27 08:11:42;;;;;;;17.17;5.10;;;;;;;;;;5109660;27;20087;-81
2022/12/27 08:14:09;;;;;;;18.15;5.30;;;;;;;;;;5112632;27;20048;-82
2022/12/27 08:16:38;;;;;;;15.20;4.75;;;;;;;;;;5104797;27;20404;-81
2022/12/27 08:19:05;;;;;;;20.52;5.82;;;;;;;;;;5113970;27;20087;-82
2022/12/27 08:21:34;;;;;;;16.65;4.97;;;;;;;;;;5112927;28;20052;-81
2022/12/27 08:24:00;;;;;;;21.48;6.78;;;;;;;;;;5113743;27;20067;-82
2022/12/27 08:26:26;;;;;;;15.70;5.95;;;;;;;;;;5113147;27;20056;-82
2022/12/27 08:28:53;;;;;;;21.17;5.90;;;;;;;;;;5107335;27;20056;-82
2022/12/27 08:31:19;;;;;;;18.40;5.68;;;;;;;;;;5103808;28;20103;-82
2022/12/27 08:33:45;;;;;;;21.58;6.05;;;;;;;;;;5111787;28;20670;-82
2022/12/27 08:36:12;;;;;;;23.00;6.57;;;;;;;;;;5107648;27;20052;-82
2022/12/27 08:38:58;;;;;;;23.13;7.55;;;;;;;;;;5111183;27;20074;-82
2022/12/27 08:41:24;;;;;;;23.15;6.28;;;;;;;;;;5112181;27;20055;-79
2022/12/27 08:43:51;;;;;;;20.75;6.90;;;;;;;;;;5110741;27;20768;-78
2022/12/27 08:46:18;;;;;;;17.10;6.38;;;;;;;;;;5109800;27;20051;-80
2022/12/27 08:48:47;;;;;;;22.42;6.45;;;;;;;;;;5109205;27;20056;-80
2022/12/27 08:51:14;;;;;;;22.75;6.57;;;;;;;;;;5095459;27;20830;-80
2022/12/27 08:53:56;;;;;;;19.13;6.70;;;;;;;;;;5103896;27;20060;-79
2022/12/27 08:56:23;;;;;;;15.20;6.53;;;;;;;;;;5111206;27;20098;-79
2022/12/27 08:58:49;;;;;;;17.25;6.40;;;;;;;;;;5112065;28;20068;-79
2022/12/27 09:01:16;;;;;;;21.30;6.63;;;;;;;;;;5112998;28;20060;-80
2022/12/27 09:03:42;;;;;;;19.85;7.38;;;;;;;;;;5102741;27;20052;-79
2022/12/27 09:06:17;;;;;;;21.00;6.40;;;;;;;;;;5109397;27;20143;-80
2022/12/27 09:08:44;;;;;;;20.48;6.88;;;;;;;;;;5111112;28;20781;-80
2022/12/27 09:11:11;;;;;;;17.85;7.40;;;;;;;;;;5112151;28;20536;-80
2022/12/27 09:13:38;;;;;;;15.43;6.82;;;;;;;;;;5112772;28;20052;-79
2022/12/27 09:16:05;;;;;;;22.90;8.30;;;;;;;;;;5110700;27;20052;-80
2022/12/27 09:18:32;;;;;;;19.95;6.88;;;;;;;;;;5108212;27;20056;-78
2022/12/27 09:21:02;;;;;;;26.88;7.95;;;;;;;;;;5101927;27;20080;-79
2022/12/27 09:23:29;;;;;;;20.95;7.88;;;;;;;;;;5092080;28;20060;-79
2022/12/27 09:25:56;;;;;;;20.25;7.38;;;;;;;;;;5100351;28;20151;-79
2022/12/27 09:28:22;;;;;;;19.35;7.75;;;;;;;;;;5106285;27;20048;-79
2022/12/27 09:30:49;;;;;;;18.77;7.18;;;;;;;;;;5107017;27;20060;-79
2022/12/27 09:33:15;;;;;;;18.83;6.72;;;;;;;;;;5112270;27;20223;-80
2022/12/27 09:35:43;;;;;;;21.58;6.78;;;;;;;;;;5109496;27;20138;-79
2022/12/27 09:38:09;;;;;;;22.23;6.90;;;;;;;;;;5100684;27;20105;-79
2022/12/27 09:40:36;;;;;;;17.17;7.30;;;;;;;;;;5110088;28;20078;-79
2022/12/27 09:43:08;;;;;;;18.15;7.13;;;;;;;;;;5108407;27;20105;-79
2022/12/27 09:45:50;;;;;;;16.25;6.88;;;;;;;;;;5098744;28;20155;-78
2022/12/27 09:48:17;;;;;;;20.65;7.43;;;;;;;;;;5119041;27;20071;-79
2022/12/27 09:50:58;;;;;;;17.92;8.18;;;;;;;;;;5119142;27;20279;-79
2022/12/27 09:53:27;;;;;;;18.88;7.47;;;;;;;;;;5109977;27;20499;-79
2022/12/27 09:55:56;;;;;;;21.15;7.18;;;;;;;;;;5099235;27;20075;-80
2022/12/27 09:58:31;;;;;;;20.85;8.05;;;;;;;;;;5102191;28;20783;-80
2022/12/27 10:00:58;;;;;;;21.02;7.88;;;;;;;;;;5109376;28;20121;-80
2022/12/27 10:03:25;;;;;;;18.58;8.10;;;;;;;;;;5111254;27;20399;-79
2022/12/27 10:06:04;;;;;;;17.33;7.80;;;;;;;;;;5109472;27;20059;-80
2022/12/27 10:08:33;;;;;;;24.83;8.50;;;;;;;;;;5102717;28;20886;-80
2022/12/27 10:11:34;;;;;;;24.15;7.80;;;;;;;;;;5106602;28;20123;-80
2022/12/27 10:14:07;;;;;;;21.10;8.10;;;;;;;;;;5112094;27;20056;-79
2022/12/27 10:16:48;;;;;;;16.10;6.75;;;;;;;;;;5107956;27;20059;-80
2022/12/27 10:19:30;;;;;;;15.70;7.20;;;;;;;;;;5111741;28;20053;-80
2022/12/27 10:22:05;;;;;;;20.23;7.70;;;;;;;;;;5104963;27;20830;-80
2022/12/27 10:24:49;;;;;;;17.10;7.57;;;;;;;;;;5103608;28;20051;-79
2022/12/27 10:27:21;;;;;;;19.77;7.78;;;;;;;;;;5108355;27;20131;-80
2022/12/27 10:29:50;;;;;;;19.05;8.15;;;;;;;;;;5106934;28;20063;-80
2022/12/27 10:32:17;;;;;;;16.15;6.90;;;;;;;;;;5110828;28;20060;-79
2022/12/27 10:34:43;;;;;;;22.17;6.80;;;;;;;;;;5108363;27;20047;-80
2022/12/27 10:37:14;;;;;;;15.52;7.13;;;;;;;;;;5108529;27;20131;-80
2022/12/27 10:39:41;;;;;;;15.95;6.70;;;;;;;;;;5105708;28;20052;-80
2022/12/27 10:42:23;;;;;;;14.82;7.05;;;;;;;;;;5109350;27;20048;-79
2022/12/27 10:45:13;;;;;;;20.95;8.10;;;;;;;;;;5101419;28;20059;-80
2022/12/27 10:47:39;;;;;;;18.10;7.03;;;;;;;;;;5071837;28;20052;-80
2022/12/27 10:50:11;;;;;;;15.98;6.88;;;;;;;;;;5109048;27;20056;-79
2022/12/27 10:52:37;;;;;;;21.30;6.47;;;;;;;;;;5107489;27;20135;-79
2022/12/27 10:55:04;;;;;;;13.88;6.03;;;;;;;;;;5108995;28;20885;-81
2022/12/27 10:57:33;;;;;;;13.07;6.20;;;;;;;;;;5111032;27;20063;-79
2022/12/27 11:00:12;;;;;;;19.30;6.45;;;;;;;;;;5107748;28;20051;-81
2022/12/27 11:02:59;;;;;;;22.95;6.57;;;;;;;;;;5103228;27;20078;-80
2022/12/27 11:05:27;;;;;;;17.50;5.93;;;;;;;;;;5110216;28;20052;-80
2022/12/27 11:07:54;;;;;;;13.82;5.70;;;;;;;;;;5106659;27;20052;-80
2022/12/27 11:10:20;;;;;;;14.18;5.95;;;;;;;;;;5111625;27;20706;-80
2022/12/27 11:12:55;;;;;;;20.08;6.20;;;;;;;;;;5111216;28;20048;-80
2022/12/27 11:15:23;;;;;;;13.85;6.40;;;;;;;;;;5107511;28;20052;-79
2022/12/27 11:17:52;;;;;;;14.05;6.70;;;;;;;;;;5110476;27;20048;-80
2022/12/27 11:20:22;;;;;;;18.00;6.45;;;;;;;;;;5095106;28;20061;-80
2022/12/27 11:22:51;;;;;;;13.05;6.30;;;;;;;;;;5111346;27;20063;-79
2022/12/27 11:25:18;;;;;;;15.93;6.15;;;;;;;;;;5105417;27;20795;-80
2022/12/27 11:27:49;;;;;;;15.55;6.93;;;;;;;;;;5108124;27;20059;-81
2022/12/27 11:30:30;;;;;;;21.55;7.03;;;;;;;;;;5109309;27;20052;-79
2022/12/27 11:33:02;;;;;;;14.68;5.68;;;;;;;;;;5111485;28;20052;-80
2022/12/27 11:35:28;;;;;;;12.35;6.22;;;;;;;;;;5108962;27;20076;-80
2022/12/27 11:37:55;;;;;;;15.30;6.93;;;;;;;;;;5104243;28;20149;-80
2022/12/27 11:40:33;;;;;;;18.33;7.38;;;;;;;;;;5110966;27;21221;-79
2022/12/27 11:43:06;;;;;;;16.42;7.15;;;;;;;;;;5097498;28;20055;-80
2022/12/27 11:45:36;;;;;;;16.60;6.75;;;;;;;;;;5104347;28;20088;-80
2022/12/27 11:48:05;;;;;;;12.57;6.55;;;;;;;;;;5110175;28;20066;-80
2022/12/27 11:50:36;;;;;;;20.05;7.00;;;;;;;;;;5110972;28;20068;-80
2022/12/27 11:53:02;;;;;;;;;;;;;;;;;;5109649;27;20053;-80
2022/12/27 11:55:47;;;;;;;17.35;6.70;;;;;;;;;;5107875;28;44692;-80
2022/12/27 11:58:14;;;;;;;21.45;6.35;;;;;;;;;;5110032;27;20058;-80
2022/12/27 12:01:01;;;;;;;18.85;6.28;;;;;;;;;;5110903;27;20127;-80
2022/12/27 12:03:57;;;;;;;14.32;6.80;;;;;;;;;;5083857;28;20057;-80
2022/12/27 12:06:42;;;;;;;16.30;7.88;;;;;;;;;;5099072;28;20056;-81
2022/12/27 12:09:18;;;;;;;14.98;6.00;;;;;;;;;;5106733;27;20078;-80
2022/12/27 12:12:03;;;;;;;15.80;5.78;;;;;;;;;;5102389;28;20057;-79
2022/12/27 12:14:41;;;;;;;16.27;6.25;;;;;;;;;;5091813;28;20096;-79
2022/12/27 12:17:26;;;;;;;18.80;6.07;;;;;;;;;;5099097;27;20063;-80
2022/12/27 12:20:21;;;;;;;17.23;6.90;;;;;;;;;;5102088;27;20068;-80
2022/12/27 12:22:47;;;;;;;15.70;5.25;;;;;;;;;;5107938;28;20183;-80
2022/12/27 12:25:32;;;;;;;11.52;5.82;;;;;;;;;;5105450;28;20137;-79
2022/12/27 12:28:34;;;;;;;13.25;5.22;;;;;;;;;;5104567;27;20068;-80
2022/12/27 12:31:36;;;;;;;16.45;4.45;;;;;;;;;;5039771;28;20057;-80
2022/12/27 12:34:03;;;;;;;9.80;4.38;;;;;;;;;;5107236;28;20070;-80
2022/12/27 12:36:29;;;;;;;14.90;4.85;;;;;;;;;;5101050;27;20048;-80
2022/12/27 12:39:08;;;;;;;12.40;4.20;;;;;;;;;;5101813;28;20142;-80
2022/12/27 12:41:47;;;;;;;9.60;3.90;;;;;;;;;;5101123;27;20143;-80
2022/12/27 12:44:14;;;;;;;9.55;4.00;;;;;;;;;;5103347;27;20085;-79
2022/12/27 12:46:44;;;;;;;8.65;4.10;;;;;;;;;;5104176;27;20055;-80
2022/12/27 12:49:29;;;;;;;13.13;4.40;;;;;;;;;;5103698;28;20114;-80
2022/12/27 12:51:58;;;;;;;11.30;4.18;;;;;;;;;;5099880;27;20132;-80
2022/12/27 12:54:25;;;;;;;11.05;4.72;;;;;;;;;;5099731;28;20535;-80
2022/12/27 12:56:51;;;;;;;14.13;5.40;;;;;;;;;;5104382;27;20143;-81
2022/12/27 12:59:17;;;;;;;10.75;4.40;;;;;;;;;;5101632;27;20064;-80
2022/12/27 13:01:56;;;;;;;18.05;5.20;;;;;;;;;;5102659;27;20138;-81
2022/12/27 13:04:41;;;;;;;15.52;6.38;;;;;;;;;;5104291;28;20059;-80
2022/12/27 13:07:17;;;;;;;17.27;5.18;;;;;;;;;;5102546;27;20573;-80
2022/12/27 13:09:59;;;;;;;10.85;4.25;;;;;;;;;;5105742;27;20052;-80
2022/12/27 13:12:25;;;;;;;12.13;5.35;;;;;;;;;;5101638;28;20051;-79
2022/12/27 13:14:54;;;;;;;11.05;4.10;;;;;;;;;;5101630;27;20107;-80
2022/12/27 13:17:27;;;;;;;18.23;4.28;;;;;;;;;;5097813;28;20037;-79
2022/12/27 13:20:02;;;;;;;8.70;4.45;;;;;;;;;;5099408;28;20062;-79
2022/12/27 13:22:47;;;;;;;13.70;3.95;;;;;;;;;;5104950;28;20094;-79
2022/12/27 13:25:33;;;;;;;11.13;4.68;;;;;;;;;;5110693;28;20507;-80
2022/12/27 13:28:21;;;;;;;9.23;4.15;;;;;;;;;;5102245;27;20713;-80
2022/12/27 13:31:01;;;;;;;8.52;3.88;;;;;;;;;;5101386;28;20060;-79
2022/12/27 13:33:34;;;;;;;11.85;3.85;;;;;;;;;;5100801;28;20060;-79
2022/12/27 13:36:06;;;;;;;10.15;3.70;;;;;;;;;;5101877;27;20048;-80
2022/12/27 13:39:02;;;;;;;11.45;4.07;;;;;;;;;;5102560;28;20044;-79
2022/12/27 13:41:31;;;;;;;11.48;4.18;;;;;;;;;;5079298;28;20064;-79
2022/12/27 13:44:00;;;;;;;11.57;3.70;;;;;;;;;;5101069;28;20054;-79
2022/12/27 13:46:40;;;;;;;12.00;3.40;;;;;;;;;;5103488;27;20058;-79
2022/12/27 13:49:08;;;;;;;11.05;3.63;;;;;;;;;;5101409;27;20048;-78
2022/12/27 13:51:42;;;;;;;9.82;3.55;;;;;;;;;;5104095;28;20106;-79
2022/12/27 13:54:27;;;;;;;13.35;4.25;;;;;;;;;;5106993;28;20052;-79
2022/12/27 13:57:03;;;;;;;9.40;3.65;;;;;;;;;;5104437;27;20052;-79
2022/12/27 13:59:42;;;;;;;10.65;3.95;;;;;;;;;;5107154;27;20083;-79
2022/12/27 14:02:17;;;;;;;10.75;4.05;;;;;;;;;;5111035;27;20056;-79
2022/12/27 14:04:59;;;;;;;13.55;3.95;;;;;;;;;;5111522;27;20143;-79
2022/12/27 14:07:45;;;;;;;11.00;3.40;;;;;;;;;;5109730;28;20519;-79
2022/12/27 14:10:17;;;;;;;12.80;4.53;;;;;;;;;;5104328;28;20139;-79
2022/12/27 14:12:53;;;;;;;12.30;4.20;;;;;;;;;;5107953;27;20116;-79
2022/12/27 14:15:40;;;;;;;13.45;4.15;;;;;;;;;;5108979;27;20523;-79
2022/12/27 14:18:07;;;;;;;10.18;3.80;;;;;;;;;;5078649;28;20063;-79
2022/12/27 14:20:44;;;;;;;8.38;3.47;;;;;;;;;;5107860;27;20052;-79
2022/12/27 14:23:17;;;;;;;11.30;3.95;;;;;;;;;;5101610;28;20083;-79
2022/12/27 14:25:43;;;;;;;12.50;3.53;;;;;;;;;;5101420;27;20507;-79
2022/12/27 14:28:20;;;;;;;12.20;3.88;;;;;;;;;;5103889;28;20139;-79
2022/12/27 14:31:05;;;;;;;13.18;4.00;;;;;;;;;;5098075;28;20049;-79
2022/12/27 14:33:32;;;;;;;10.95;3.80;;;;;;;;;;5101979;28;20060;-79
2022/12/27 14:36:15;;;;;;;9.27;4.03;;;;;;;;;;5098700;27;20059;-78
2022/12/27 14:38:56;;;;;;;12.70;4.22;;;;;;;;;;5103948;28;20059;-80
2022/12/27 14:41:29;;;;;;;12.45;4.10;;;;;;;;;;5108588;28;20060;-79
2022/12/27 14:44:18;;;;;;;12.88;4.13;;;;;;;;;;5105722;27;20056;-79
2022/12/27 14:46:57;;;;;;;10.73;4.13;;;;;;;;;;5102679;28;20114;-79
2022/12/27 14:49:42;;;;;;;13.15;3.85;;;;;;;;;;5107181;27;20070;-79
2022/12/27 14:52:27;;;;;;;11.63;3.92;;;;;;;;;;5108009;27;20091;-79
2022/12/27 14:54:59;;;;;;;12.25;4.15;;;;;;;;;;5110542;28;20056;-79
2022/12/27 14:57:26;;;;;;;11.48;3.95;;;;;;;;;;5108450;28;20102;-79
2022/12/27 15:00:10;;;;;;;13.02;3.72;;;;;;;;;;5101383;27;20538;-80
2022/12/27 15:02:43;;;;;;;12.63;4.10;;;;;;;;;;5100342;28;20148;-80
2022/12/27 15:05:15;;;;;;;11.30;4.25;;;;;;;;;;5106944;27;20052;-79
2022/12/27 15:08:00;;;;;;;18.77;4.55;;;;;;;;;;5108879;27;20187;-80
2022/12/27 15:10:45;;;;;;;11.95;4.13;;;;;;;;;;5111651;28;20927;-79
2022/12/27 15:13:12;;;;;;;10.25;4.30;;;;;;;;;;5098103;27;20165;-79
2022/12/27 15:15:44;;;;;;;12.40;4.35;;;;;;;;;;5106717;28;20058;-79
2022/12/27 15:18:28;;;;;;;11.52;4.05;;;;;;;;;;5095004;27;20048;-79
2022/12/27 15:21:01;;;;;;;8.82;4.00;;;;;;;;;;5107265;28;20056;-79
2022/12/27 15:23:42;;;;;;;16.48;5.28;;;;;;;;;;5103924;28;20194;-79
2022/12/27 15:26:27;;;;;;;8.75;4.43;;;;;;;;;;5099447;28;20511;-79
2022/12/27 15:29:02;;;;;;;7.78;3.63;;;;;;;;;;5108480;28;20083;-79
2022/12/27 15:31:44;;;;;;;11.05;3.75;;;;;;;;;;5110757;28;20055;-79
2022/12/27 15:34:22;;;;;;;10.10;3.58;;;;;;;;;;5106300;27;20059;-79
2022/12/27 15:36:49;;;;;;;10.70;3.88;;;;;;;;;;5105023;27;20052;-79
2022/12/27 15:39:42;;;;;;;8.27;4.07;;;;;;;;;;5101663;28;20048;-79
2022/12/27 15:42:17;;;;;;;10.45;3.83;;;;;;;;;;5096607;27;20125;-79
2022/12/27 15:44:48;;;;;;;10.95;3.85;;;;;;;;;;5103764;28;20182;-78
2022/12/27 15:47:36;;;;;;;6.57;3.40;;;;;;;;;;5104829;27;20032;-79
2022/12/27 15:50:02;;;;;;;13.98;4.00;;;;;;;;;;5107185;28;20049;-79
2022/12/27 15:52:56;;;;;;;12.82;4.20;;;;;;;;;;5101967;27;20047;-79
2022/12/27 15:55:41;;;;;;;15.15;4.20;;;;;;;;;;5105499;27;20553;-78
2022/12/27 15:58:13;;;;;;;10.35;4.43;;;;;;;;;;5108647;27;20180;-79
2022/12/27 16:00:41;;;;;;;9.30;3.65;;;;;;;;;;5108177;28;20056;-79
2022/12/27 16:03:26;;;;;;;7.70;3.63;;;;;;;;;;5107683;27;20040;-79
2022/12/27 16:05:53;;;;;;;9.35;3.75;;;;;;;;;;5105309;27;20518;-79
2022/12/27 16:08:30;;;;;;;11.65;4.00;;;;;;;;;;5106390;27;20096;-79
2022/12/27 16:10:57;;;;;;;10.73;3.95;;;;;;;;;;5103071;27;20067;-79
2022/12/27 16:13:32;;;;;;;12.20;4.38;;;;;;;;;;5109093;28;20131;-80
2022/12/27 16:16:27;;;;;;;10.38;3.85;;;;;;;;;;5100124;27;20799;-80
2022/12/27 16:19:08;;;;;;;11.48;3.83;;;;;;;;;;5096944;28;20059;-78
2022/12/27 16:21:43;;;;;;;8.55;3.80;;;;;;;;;;5112215;27;20130;-79
2022/12/27 16:24:11;;;;;;;12.82;4.20;;;;;;;;;;5106690;28;20044;-79
2022/12/27 16:26:45;;;;;;;9.55;3.85;;;;;;;;;;5112448;27;20103;-80
2022/12/27 16:29:13;;;;;;;16.38;3.63;;;;;;;;;;5094705;28;20098;-79
2022/12/27 16:31:49;;;;;;;11.45;4.32;;;;;;;;;;5110910;28;20490;-79
2022/12/27 16:34:31;;;;;;;10.63;3.53;;;;;;;;;;5110915;27;20109;-80
2022/12/27 16:36:58;;;;;;;11.77;3.70;;;;;;;;;;5111988;27;20056;-79